createdAt,value
2018-04-28T00:01:47.713Z,7.37
2018-04-28T00:04:15.231Z,6.33
2018-04-28T00:06:42.922Z,6.50
2018-04-28T00:09:10.448Z,6.30
2018-04-28T00:11:38.631Z,6.80
2018-04-28T00:14:06.146Z,6.40
2018-04-28T00:16:55.161Z,6.60
2018-04-28T00:19:25.517Z,6.40
2018-04-28T00:24:57.586Z,6.40
2018-04-28T00:27:33.540Z,6.40
2018-04-28T00:30:07.126Z,7.27
2018-04-28T00:32:34.638Z,5.90
2018-04-28T00:35:03.877Z,6.00
2018-04-28T00:37:35.890Z,6.33
2018-04-28T00:40:05.906Z,6.63
2018-04-28T00:45:28.114Z,5.77
2018-04-28T00:47:55.626Z,7.00
2018-04-28T00:50:28.866Z,6.40
2018-04-28T00:52:56.634Z,6.70
2018-04-28T00:55:24.385Z,7.27
2018-04-28T00:58:09.442Z,6.43
2018-04-28T01:00:48.670Z,6.73
2018-04-28T01:03:31.078Z,5.90
2018-04-28T01:05:59.377Z,6.07
2018-04-28T01:08:30.585Z,6.87
2018-04-28T01:11:02.546Z,6.00
2018-04-28T01:13:32.805Z,6.10
2018-04-28T01:16:00.339Z,7.90
2018-04-28T01:18:27.838Z,6.50
2018-04-28T01:21:01.945Z,6.23
2018-04-28T01:23:33.250Z,6.37
2018-04-28T01:26:16.486Z,6.90
2018-04-28T01:28:48.595Z,7.10
2018-04-28T01:31:17.681Z,7.27
2018-04-28T01:34:08.909Z,6.37
2018-04-28T01:36:51.594Z,6.20
2018-04-28T01:39:36.963Z,6.20
2018-04-28T01:42:26.265Z,7.40
2018-04-28T01:45:00.558Z,7.10
2018-04-28T01:47:28.083Z,6.37
2018-04-28T01:49:58.234Z,7.97
2018-04-28T01:52:36.442Z,6.73
2018-04-28T01:55:19.646Z,6.60
2018-04-28T01:57:49.970Z,6.00
2018-04-28T02:00:37.085Z,7.70
2018-04-28T02:06:07.757Z,6.50
2018-04-28T02:08:35.523Z,6.77
2018-04-28T02:11:03.028Z,6.20
2018-04-28T02:13:31.275Z,7.17
2018-04-28T02:19:06.203Z,6.60
2018-04-28T02:21:43.367Z,6.47
2018-04-28T02:24:27.540Z,6.47
2018-04-28T02:26:56.581Z,7.20
2018-04-28T02:29:35.355Z,6.60
2018-04-28T02:32:18.791Z,7.00
2018-04-28T02:34:46.298Z,6.93
2018-04-28T02:40:37.984Z,7.47
2018-04-28T02:43:05.483Z,6.33
2018-04-28T02:45:39.046Z,7.87
2018-04-28T02:48:12.140Z,7.07
2018-04-28T02:50:55.454Z,7.27
2018-04-28T02:53:30.499Z,6.63
2018-04-28T02:56:17.408Z,7.60
2018-04-28T02:58:51.022Z,7.70
2018-04-28T03:01:24.380Z,7.10
2018-04-28T03:03:51.887Z,7.30
2018-04-28T03:06:23.100Z,7.33
2018-04-28T03:08:50.663Z,6.80
2018-04-28T03:11:18.417Z,6.37
2018-04-28T03:13:51.717Z,6.90
2018-04-28T03:16:25.875Z,7.43
2018-04-28T03:18:55.277Z,6.13
2018-04-28T03:21:22.794Z,6.80
2018-04-28T03:23:52.198Z,6.20
2018-04-28T03:26:24.374Z,6.60
2018-04-28T03:29:07.668Z,7.00
2018-04-28T03:31:39.530Z,5.77
2018-04-28T03:34:15.928Z,5.63
2018-04-28T03:36:49.206Z,7.17
2018-04-28T03:39:16.977Z,6.07
2018-04-28T03:42:00.914Z,7.00
2018-04-28T03:44:33.073Z,7.00
2018-04-28T03:47:12.884Z,5.87
2018-04-28T03:49:40.400Z,6.13
2018-04-28T03:52:13.975Z,7.00
2018-04-28T03:54:42.315Z,6.63
2018-04-28T03:57:33.245Z,5.97
2018-04-28T04:00:12.432Z,6.43
2018-04-28T04:02:52.561Z,6.73
2018-04-28T04:05:41.622Z,6.13
2018-04-28T04:08:15.773Z,5.97
2018-04-28T04:11:04.079Z,5.90
2018-04-28T04:13:44.131Z,6.57
2018-04-28T04:16:27.279Z,6.60
2018-04-28T04:19:20.381Z,6.90
2018-04-28T04:22:04.850Z,6.27
2018-04-28T04:24:39.810Z,6.73
2018-04-28T04:27:16.062Z,5.80
2018-04-28T04:32:43.590Z,7.57
2018-04-28T04:38:26.466Z,5.97
2018-04-28T04:40:57.830Z,6.90
2018-04-28T04:43:31.417Z,5.30
2018-04-28T04:46:05.521Z,6.53
2018-04-28T04:48:38.627Z,6.00
2018-04-28T04:51:06.833Z,6.37
2018-04-28T04:53:40.909Z,6.77
2018-04-28T04:56:20.233Z,6.47
2018-04-28T04:59:06.455Z,6.37
2018-04-28T05:01:53.504Z,6.43
2018-04-28T05:04:31.576Z,6.40
2018-04-28T05:07:08.954Z,6.17
2018-04-28T05:12:46.624Z,7.60
2018-04-28T05:15:32.042Z,7.07
2018-04-28T05:18:11.352Z,6.53
2018-04-28T05:20:44.765Z,6.13
2018-04-28T05:23:31.799Z,6.50
2018-04-28T05:26:18.113Z,6.03
2018-04-28T05:31:49.912Z,6.97
2018-04-28T05:37:34.744Z,6.20
2018-04-28T05:43:15.666Z,6.23
2018-04-28T05:45:55.274Z,5.87
2018-04-28T05:48:28.952Z,6.20
2018-04-28T05:51:29.843Z,6.83
2018-04-28T05:54:05.262Z,6.17
2018-04-28T05:56:44.482Z,6.07
2018-04-28T05:59:22.716Z,7.20
2018-04-28T06:01:55.749Z,6.03
2018-04-28T06:04:43.934Z,6.63
2018-04-28T06:07:24.191Z,10.63
2018-04-28T06:09:57.661Z,12.50
2018-04-28T06:15:51.519Z,6.47
2018-04-28T06:18:30.836Z,5.93
2018-04-28T06:20:58.377Z,5.40
2018-04-28T06:23:26.137Z,5.17
2018-04-28T06:25:54.114Z,6.30
2018-04-28T06:28:22.583Z,6.23
2018-04-28T06:30:50.095Z,6.60
2018-04-28T06:33:17.598Z,6.57
2018-04-28T06:35:45.146Z,6.50
2018-04-28T06:38:13.578Z,6.03
2018-04-28T06:40:41.077Z,5.73
2018-04-28T06:43:08.592Z,6.80
2018-04-28T06:45:36.191Z,5.80
2018-04-28T06:48:03.771Z,5.60
2018-04-28T06:50:31.294Z,5.87
2018-04-28T06:52:58.991Z,5.17
2018-04-28T06:55:26.494Z,5.50
2018-04-28T06:57:54.207Z,5.77
2018-04-28T07:00:22.589Z,6.10
2018-04-28T07:02:50.098Z,7.13
2018-04-28T07:05:17.610Z,7.23
2018-04-28T07:07:45.294Z,5.50
2018-04-28T07:10:12.802Z,6.70
2018-04-28T07:12:40.310Z,5.70
2018-04-28T07:15:07.938Z,7.20
2018-04-28T07:17:35.446Z,7.10
2018-04-28T07:20:02.970Z,17.57
2018-04-28T07:22:30.474Z,5.93
2018-04-28T07:24:58.068Z,5.40
2018-04-28T07:27:25.763Z,6.20
2018-04-28T07:29:54.234Z,10.33
2018-04-28T07:32:22.135Z,8.57
2018-04-28T07:34:50.416Z,8.77
2018-04-28T07:37:18.759Z,9.77
2018-04-28T07:39:46.266Z,7.77
2018-04-28T07:42:13.774Z,6.97
2018-04-28T07:44:41.416Z,13.20
2018-04-28T07:47:09.182Z,10.37
2018-04-28T07:49:36.933Z,8.60
2018-04-28T07:52:04.446Z,8.80
2018-04-28T07:54:32.160Z,8.13
2018-04-28T07:57:00.437Z,9.07
2018-04-28T07:59:27.951Z,7.50
2018-04-28T08:01:55.456Z,10.63
2018-04-28T08:04:22.971Z,6.23
2018-04-28T08:06:50.682Z,7.00
2018-04-28T08:09:18.206Z,7.70
2018-04-28T08:11:45.893Z,7.50
2018-04-28T08:14:13.579Z,7.00
2018-04-28T08:16:41.098Z,8.37
2018-04-28T08:19:08.609Z,6.80
2018-04-28T08:21:36.113Z,7.63
2018-04-28T08:24:03.798Z,6.63
2018-04-28T08:26:32.177Z,6.80
2018-04-28T08:28:59.674Z,7.17
2018-04-28T08:31:27.198Z,6.27
2018-04-28T08:33:54.856Z,7.30
2018-04-28T08:36:22.358Z,7.93
2018-04-28T08:38:49.870Z,7.23
2018-04-28T08:41:17.391Z,6.40
2018-04-28T08:43:44.897Z,8.20
2018-04-28T08:46:12.406Z,7.13
2018-04-28T08:48:39.909Z,6.73
2018-04-28T08:51:07.673Z,6.20
2018-04-28T08:53:35.162Z,6.50
2018-04-28T08:56:02.673Z,7.20
2018-04-28T08:58:30.192Z,7.13
2018-04-28T09:00:59.125Z,8.00
2018-04-28T09:03:27.045Z,7.13
2018-04-28T09:05:54.563Z,8.10
2018-04-28T09:08:22.074Z,8.13
2018-04-28T09:10:49.754Z,8.90
2018-04-28T09:13:17.265Z,9.20
2018-04-28T09:15:44.774Z,8.90
2018-04-28T09:18:12.410Z,8.80
2018-04-28T09:20:39.919Z,9.67
2018-04-28T09:23:07.454Z,9.30
2018-04-28T09:25:35.124Z,9.90
2018-04-28T09:28:02.629Z,10.20
2018-04-28T09:30:30.143Z,9.40
2018-04-28T09:32:57.923Z,9.70
2018-04-28T09:35:25.406Z,8.37
2018-04-28T09:37:53.662Z,5.80
2018-04-28T09:40:21.937Z,8.80
2018-04-28T09:42:49.446Z,8.73
2018-04-28T09:45:17.064Z,8.33
2018-04-28T09:47:45.641Z,7.90
2018-04-28T09:50:13.159Z,8.97
2018-04-28T09:52:40.817Z,7.67
2018-04-28T09:55:08.585Z,8.73
2018-04-28T09:57:36.095Z,8.70
2018-04-28T10:00:15.402Z,7.30
2018-04-28T10:02:43.112Z,8.50
2018-04-28T10:05:10.610Z,7.70
2018-04-28T10:07:38.118Z,8.80
2018-04-28T10:10:05.629Z,7.20
2018-04-28T10:12:33.555Z,6.90
2018-04-28T10:15:01.058Z,7.23
2018-04-28T10:17:28.559Z,7.70
2018-04-28T10:19:56.075Z,6.67
2018-04-28T10:22:23.730Z,6.07
2018-04-28T10:24:51.252Z,6.50
2018-04-28T10:27:18.746Z,6.13
2018-04-28T10:29:46.258Z,7.77
2018-04-28T10:32:13.754Z,6.40
2018-04-28T10:34:41.264Z,5.50
2018-04-28T10:37:08.769Z,4.37
2018-04-28T10:39:36.277Z,4.97
2018-04-28T10:42:03.952Z,4.30
2018-04-28T10:44:31.558Z,4.70
2018-04-28T10:46:59.073Z,4.40
2018-04-28T10:49:26.740Z,4.63
2018-04-28T10:51:54.258Z,4.83
2018-04-28T10:54:21.749Z,4.40
2018-04-28T10:56:49.266Z,4.27
2018-04-28T10:59:17.607Z,3.23
2018-04-28T11:01:45.369Z,4.20
2018-04-28T11:04:12.869Z,3.93
2018-04-28T11:06:41.420Z,4.13
2018-04-28T11:09:08.945Z,5.43
2018-04-28T11:11:36.630Z,4.27
2018-04-28T11:14:04.134Z,4.20
2018-04-28T11:16:32.455Z,4.37
2018-04-28T11:19:00.221Z,6.40
2018-04-28T11:21:27.746Z,4.97
2018-04-28T11:23:55.397Z,4.43
2018-04-28T11:26:22.911Z,6.23
2018-04-28T11:28:50.677Z,6.10
2018-04-28T11:31:18.181Z,4.47
2018-04-28T11:33:45.850Z,4.20
2018-04-28T11:36:13.363Z,4.43
2018-04-28T11:38:41.550Z,3.80
2018-04-28T11:41:10.104Z,4.13
2018-04-28T11:43:37.887Z,5.00
2018-04-28T11:46:05.500Z,4.90
2018-04-28T11:48:33.369Z,5.40
2018-04-28T11:51:00.882Z,4.70
2018-04-28T11:53:28.640Z,5.37
2018-04-28T11:55:56.159Z,5.00
2018-04-28T11:58:24.012Z,5.57
2018-04-28T12:00:51.516Z,5.03
2018-04-28T12:03:19.047Z,4.53
2018-04-28T12:05:46.571Z,5.43
2018-04-28T12:08:14.278Z,5.30
2018-04-28T12:10:41.803Z,5.13
2018-04-28T12:13:09.492Z,4.73
2018-04-28T12:15:37.006Z,5.07
2018-04-28T12:18:04.514Z,4.10
2018-04-28T12:20:32.172Z,4.00
2018-04-28T12:22:59.945Z,4.90
2018-04-28T12:25:28.962Z,4.67
2018-04-28T12:27:57.237Z,4.90
2018-04-28T12:30:24.768Z,5.50
2018-04-28T12:32:52.295Z,5.07
2018-04-28T12:35:19.806Z,4.70
2018-04-28T12:37:48.392Z,4.80
2018-04-28T12:40:15.994Z,4.73
2018-04-28T12:42:43.501Z,4.13
2018-04-28T12:45:11.006Z,5.00
2018-04-28T12:47:38.801Z,5.77
2018-04-28T12:50:06.248Z,4.43
2018-04-28T12:52:33.771Z,4.00
2018-04-28T12:55:01.447Z,4.30
2018-04-28T12:57:28.983Z,3.83
2018-04-28T12:59:56.995Z,4.07
2018-04-28T13:02:24.762Z,3.87
2018-04-28T13:04:52.266Z,4.00
2018-04-28T13:07:19.956Z,3.30
2018-04-28T13:09:47.746Z,2.10
2018-04-28T13:12:15.523Z,3.77
2018-04-28T13:14:43.032Z,3.10
2018-04-28T13:17:10.539Z,4.33
2018-04-28T13:19:38.058Z,3.80
2018-04-28T13:22:05.569Z,3.93
2018-04-28T13:24:33.125Z,4.93
2018-04-28T13:27:02.433Z,4.10
2018-04-28T13:29:30.898Z,4.40
2018-04-28T13:31:58.415Z,3.17
2018-04-28T13:34:25.921Z,4.00
2018-04-28T13:36:53.478Z,3.80
2018-04-28T13:39:21.207Z,4.10
2018-04-28T13:41:48.728Z,3.63
2018-04-28T13:44:16.235Z,3.53
2018-04-28T13:46:43.754Z,3.30
2018-04-28T13:49:11.411Z,4.00
2018-04-28T13:51:38.926Z,4.33
2018-04-28T13:54:06.446Z,3.53
2018-04-28T13:56:34.035Z,4.17
2018-04-28T13:59:01.550Z,3.90
2018-04-28T14:01:29.065Z,4.07
2018-04-28T14:03:56.573Z,3.43
2018-04-28T14:06:24.118Z,4.43
2018-04-28T14:08:51.647Z,4.33
2018-04-28T14:11:19.920Z,3.83
2018-04-28T14:13:48.373Z,4.30
2018-04-28T14:16:15.878Z,3.27
2018-04-28T14:18:43.428Z,4.00
2018-04-28T14:21:11.010Z,3.93
2018-04-28T14:23:38.518Z,5.43
2018-04-28T14:26:06.032Z,3.50
2018-04-28T14:28:33.562Z,3.93
2018-04-28T14:31:02.165Z,4.37
2018-04-28T14:33:29.840Z,4.23
2018-04-28T14:35:57.333Z,3.50
2018-04-28T14:38:25.090Z,4.23
2018-04-28T14:40:52.601Z,2.73
2018-04-28T14:43:20.281Z,3.80
2018-04-28T14:45:47.816Z,4.00
2018-04-28T14:48:15.329Z,4.73
2018-04-28T14:50:42.855Z,3.33
2018-04-28T14:53:10.382Z,3.10
2018-04-28T14:55:37.886Z,3.97
2018-04-28T14:58:05.406Z,4.00
2018-04-28T15:00:32.945Z,3.73
2018-04-28T15:03:01.218Z,3.10
2018-04-28T15:05:28.734Z,3.33
2018-04-28T15:07:56.262Z,5.33
2018-04-28T15:10:23.776Z,3.80
2018-04-28T15:12:51.298Z,4.23
2018-04-28T15:15:18.822Z,4.37
2018-04-28T15:17:46.990Z,4.73
2018-04-28T15:20:15.265Z,4.87
2018-04-28T15:22:42.841Z,4.50
2018-04-28T15:25:10.365Z,4.20
2018-04-28T15:27:38.646Z,5.10
2018-04-28T15:30:06.599Z,4.27
2018-04-28T15:32:34.354Z,5.20
2018-04-28T15:35:02.008Z,4.43
2018-04-28T15:37:29.575Z,4.00
2018-04-28T15:39:57.089Z,4.90
2018-04-28T15:42:24.801Z,3.90
2018-04-28T15:44:52.567Z,4.40
2018-04-28T15:47:20.117Z,4.67
2018-04-28T15:49:47.618Z,3.90
2018-04-28T15:52:15.882Z,5.43
2018-04-28T15:54:43.521Z,4.90
2018-04-28T15:57:11.023Z,5.30
2018-04-28T15:59:38.830Z,6.10
2018-04-28T16:02:06.770Z,5.13
2018-04-28T16:04:34.280Z,5.20
2018-04-28T16:07:01.791Z,5.60
2018-04-28T16:09:29.656Z,5.40
2018-04-28T16:11:57.103Z,6.07
2018-04-28T16:14:24.776Z,6.00
2018-04-28T16:16:52.282Z,5.50
2018-04-28T16:19:19.857Z,4.70
2018-04-28T16:21:48.567Z,6.23
2018-04-28T16:24:16.009Z,4.90
2018-04-28T16:26:43.621Z,5.63
2018-04-28T16:29:11.374Z,5.43
2018-04-28T16:31:38.893Z,5.13
2018-04-28T16:34:06.401Z,5.17
2018-04-28T16:36:34.029Z,4.97
2018-04-28T16:39:01.939Z,4.80
2018-04-28T16:41:29.454Z,4.60
2018-04-28T16:43:56.961Z,6.40
2018-04-28T16:46:24.486Z,4.40
2018-04-28T16:48:51.997Z,8.40
2018-04-28T16:51:19.730Z,4.63
2018-04-28T16:53:47.246Z,4.80
2018-04-28T16:56:14.930Z,4.63
2018-04-28T16:58:42.694Z,4.40
2018-04-28T17:01:10.203Z,4.90
2018-04-28T17:03:37.918Z,4.63
2018-04-28T17:06:05.446Z,4.13
2018-04-28T17:08:33.162Z,5.13
2018-04-28T17:11:00.894Z,5.43
2018-04-28T17:13:28.677Z,4.63
2018-04-28T17:15:56.437Z,4.93
2018-04-28T17:18:23.966Z,4.80
2018-04-28T17:20:51.480Z,4.47
2018-04-28T17:23:20.025Z,4.63
2018-04-28T17:25:47.805Z,4.50
2018-04-28T17:28:15.306Z,3.77
2018-04-28T17:30:43.013Z,5.30
2018-04-28T17:33:10.536Z,4.93
2018-04-28T17:35:38.209Z,6.17
2018-04-28T17:38:05.723Z,5.00
2018-04-28T17:40:33.259Z,4.20
2018-04-28T17:43:00.762Z,4.20
2018-04-28T17:45:28.275Z,4.47
2018-04-28T17:47:55.778Z,4.03
2018-04-28T17:50:23.328Z,3.73
2018-04-28T17:52:51.719Z,4.10
2018-04-28T17:55:20.385Z,3.80
2018-04-28T17:57:48.106Z,4.10
2018-04-28T18:00:15.618Z,3.30
2018-04-28T18:02:43.236Z,4.10
2018-04-28T18:05:10.754Z,3.87
2018-04-28T18:07:38.260Z,5.33
2018-04-28T18:10:05.789Z,4.00
2018-04-28T18:12:33.310Z,4.30
2018-04-28T18:15:00.914Z,4.00
2018-04-28T18:17:28.418Z,3.67
2018-04-28T18:19:56.157Z,4.43
2018-04-28T18:22:23.772Z,7.67
2018-04-28T18:24:51.289Z,8.53
2018-04-28T18:27:19.713Z,10.67
2018-04-28T18:29:47.861Z,9.60
2018-04-28T18:32:15.413Z,10.70
2018-04-28T18:34:43.034Z,10.73
2018-04-28T18:37:10.574Z,9.87
2018-04-28T18:39:38.087Z,10.70
2018-04-28T18:42:06.362Z,11.03
2018-04-28T18:44:34.014Z,11.80
2018-04-28T18:47:02.522Z,11.80
2018-04-28T18:49:30.215Z,11.53
2018-04-28T18:51:57.982Z,11.90
2018-04-28T18:54:25.525Z,11.90
2018-04-28T18:56:53.043Z,10.83
2018-04-28T18:59:21.585Z,12.00
2018-04-28T19:01:49.167Z,11.07
2018-04-28T19:04:16.690Z,10.30
2018-04-28T19:06:44.438Z,10.77
2018-04-28T19:09:12.029Z,10.50
2018-04-28T19:11:39.557Z,10.97
2018-04-28T19:14:07.085Z,11.57
2018-04-28T19:16:35.358Z,7.67
2018-04-28T19:19:02.985Z,6.50
2018-04-28T19:21:30.534Z,6.00
2018-04-28T19:23:58.294Z,6.23
2018-04-28T19:26:25.823Z,6.50
2018-04-28T19:28:53.339Z,5.70
2018-04-28T19:31:20.844Z,5.90
2018-04-28T19:33:48.402Z,5.57
2018-04-28T19:36:15.911Z,6.93
2018-04-28T19:38:43.416Z,6.73
2018-04-28T19:41:10.989Z,7.50
2018-04-28T19:43:38.503Z,6.60
2018-04-28T19:46:06.195Z,8.37
2018-04-28T19:48:33.773Z,7.30
2018-04-28T19:51:01.579Z,7.53
2018-04-28T19:53:29.110Z,6.30
2018-04-28T19:55:56.941Z,7.10
2018-04-28T19:58:24.533Z,7.27
2018-04-28T20:00:52.059Z,6.80
2018-04-28T20:03:19.558Z,7.57
2018-04-28T20:05:47.074Z,7.23
2018-04-28T20:08:14.841Z,7.37
2018-04-28T20:10:45.095Z,7.60
2018-04-28T20:13:12.638Z,7.83
2018-04-28T20:15:40.150Z,7.40
2018-04-28T20:18:07.847Z,5.97
2018-04-28T20:20:35.378Z,6.70
2018-04-28T20:23:14.588Z,8.67
2018-04-28T20:25:42.870Z,7.43
2018-04-28T20:28:10.595Z,8.80
2018-04-28T20:30:38.246Z,7.57
2018-04-28T20:33:07.152Z,7.10
2018-04-28T20:35:34.777Z,8.70
2018-04-28T20:38:02.300Z,7.50
2018-04-28T20:40:30.026Z,7.90
2018-04-28T20:42:58.564Z,8.00
2018-04-28T20:45:26.821Z,7.63
2018-04-28T20:47:54.374Z,7.33
2018-04-28T20:50:22.658Z,7.47
2018-04-28T20:52:50.531Z,7.50
2018-04-28T20:55:18.814Z,7.17
2018-04-28T20:57:46.326Z,7.30
2018-04-28T21:00:13.839Z,7.70
2018-04-28T21:02:41.615Z,8.30
2018-04-28T21:05:09.167Z,7.10
2018-04-28T21:07:36.681Z,7.50
2018-04-28T21:10:04.426Z,7.37
2018-04-28T21:12:32.191Z,7.20
2018-04-28T21:14:59.686Z,6.83
2018-04-28T21:17:27.501Z,7.33
2018-04-28T21:19:55.001Z,6.23
2018-04-28T21:22:23.566Z,6.60
2018-04-28T21:24:51.338Z,7.67
2018-04-28T21:27:18.855Z,6.50
2018-04-28T21:29:46.429Z,6.63
2018-04-28T21:32:13.942Z,6.70
2018-04-28T21:34:41.744Z,7.87
2018-04-28T21:37:09.383Z,7.80
2018-04-28T21:39:36.982Z,7.13
2018-04-28T21:42:06.050Z,7.47
2018-04-28T21:44:33.762Z,7.47
2018-04-28T21:47:01.300Z,6.90
2018-04-28T21:49:28.823Z,7.20
2018-04-28T21:51:56.433Z,7.70
2018-04-28T21:54:23.948Z,7.90
2018-04-28T21:56:51.458Z,6.33
2018-04-28T21:59:19.858Z,7.80
2018-04-28T22:01:47.386Z,6.47
2018-04-28T22:04:14.901Z,7.30
2018-04-28T22:06:42.420Z,7.53
2018-04-28T22:09:10.134Z,8.23
2018-04-28T22:11:38.511Z,7.87
2018-04-28T22:14:06.098Z,7.87
2018-04-28T22:16:33.533Z,7.80
2018-04-28T22:19:01.041Z,8.23
2018-04-28T22:21:28.641Z,8.20
2018-04-28T22:23:56.408Z,8.23
2018-04-28T22:26:24.194Z,8.10
2018-04-28T22:28:51.935Z,9.13
2018-04-28T22:31:19.705Z,9.43
2018-04-28T22:33:47.213Z,8.50
2018-04-28T22:36:14.913Z,8.80
2018-04-28T22:38:42.429Z,8.70
2018-04-28T22:41:09.946Z,7.97
2018-04-28T22:43:37.453Z,6.50
2018-04-28T22:46:04.959Z,6.60
2018-04-28T22:48:32.468Z,6.80
2018-04-28T22:50:59.986Z,6.03
2018-04-28T22:53:27.496Z,6.43
2018-04-28T22:55:55.186Z,6.80
2018-04-28T22:58:22.702Z,6.30
2018-04-28T23:00:50.406Z,6.67
2018-04-28T23:03:18.027Z,6.57
2018-04-28T23:05:46.065Z,5.50
2018-04-28T23:08:14.341Z,6.20
2018-04-28T23:10:41.857Z,7.73
2018-04-28T23:13:09.525Z,6.80
2018-04-28T23:15:37.027Z,7.40
2018-04-28T23:18:04.747Z,6.93
2018-04-28T23:20:32.258Z,7.03
2018-04-28T23:23:00.581Z,6.90
2018-04-28T23:25:28.102Z,6.63
2018-04-28T23:27:55.736Z,6.97
2018-04-28T23:30:23.247Z,6.67
2018-04-28T23:32:50.755Z,6.17
2018-04-28T23:35:18.482Z,6.60
2018-04-28T23:37:45.994Z,6.50
2018-04-28T23:40:13.567Z,7.80
2018-04-28T23:42:41.127Z,7.77
2018-04-28T23:45:08.697Z,7.30
2018-04-28T23:47:36.370Z,7.50
2018-04-28T23:50:03.877Z,7.20
2018-04-28T23:52:31.397Z,6.90
2018-04-28T23:54:59.048Z,7.10
2018-04-28T23:57:26.585Z,7.70
2018-04-28T23:59:54.277Z,7.10
